Platitera Tonouranon — SX7180 — position and weather

sailwx.info

Track history (hours):
 
Tides and Currents Weather Stations Pressure Air Temp Water Temp Dewpoint Dewpoint Depression Visibility Wind Speed Wind Dir Waves Ship Positions

Platitera Tonouranon

Last reported at 2018-Jul-21 19:01 UTC. Time now 2018-Jul-21 18:58 UTC.
Position N 37°56' E 023°41'.

Length 55 m; draft 3.8 m.

Type: Ship (hazmat cat A). MMSI: 237038200.

Date/timePositionNaut miles runAvg speedWind from/ knotsBaromVisibWave heightAir tempDewpointWater temp
2018-Jul-21 19:01N 37°56' E 023°41'0 0.0
2018-Jul-21 18:30N 37°56' E 023°41'0 0.0
2018-Jul-21 18:00N 37°56' E 023°41'0 0.0
2018-Jul-21 17:31N 37°56' E 023°41'0 0.0
2018-Jul-21 17:00N 37°56' E 023°41'4 8.3
2018-Jul-21 16:30N 37°53' E 023°37'611.1
2018-Jul-21 16:00N 37°50' E 023°32'611.5
2018-Jul-21 15:31N 37°47' E 023°26'2 2.4
2018-Jul-21 14:44N 37°45' E 023°26'0 0.0
2018-Jul-21 14:27N 37°45' E 023°26'0 0.0
2018-Jul-21 13:30N 37°45' E 023°26'3 6.3
2018-Jul-21 13:00N 37°42' E 023°25'711.8
2018-Jul-21 12:22N 37°34' E 023°25'9 5.0
2018-Jul-21 10:37N 37°27' E 023°32'16 3.9
2018-Jul-21 06:32N 37°42' E 023°34'212.1
2018-Jul-21 06:24N 37°44' E 023°34'511.6
2018-Jul-21 06:00N 37°49' E 023°36'611.4
2018-Jul-21 05:30N 37°54' E 023°39'3 5.9
2018-Jul-21 05:00N 37°56' E 023°41'0 0.0
2018-Jul-21 04:30N 37°56' E 023°41'0 0.0
2018-Jul-21 04:00N 37°56' E 023°41'0 0.0
2018-Jul-21 03:30N 37°56' E 023°41'0 0.0
2018-Jul-21 03:00N 37°56' E 023°41'0 0.0
2018-Jul-21 02:30N 37°56' E 023°41'0 0.0
2018-Jul-21 02:00N 37°56' E 023°41'0 0.0
2018-Jul-21 01:30N 37°56' E 023°41'0 0.0
2018-Jul-21 01:00N 37°56' E 023°41'0 0.0
2018-Jul-21 00:30N 37°56' E 023°41'0 0.0
2018-Jul-21 00:00N 37°56' E 023°41'0 0.0
2018-Jul-20 23:30N 37°56' E 023°41'0 0.0
2018-Jul-20 23:00N 37°56' E 023°41'0 0.0
2018-Jul-20 22:30N 37°56' E 023°41'0 0.0
2018-Jul-20 22:00N 37°56' E 023°41'0 0.0
2018-Jul-20 21:30N 37°56' E 023°41'0 0.0
2018-Jul-20 21:00N 37°56' E 023°41'0 0.0
2018-Jul-20 20:31N 37°56' E 023°41'0 0.0
2018-Jul-20 20:00N 37°56' E 023°41'0 0.0
2018-Jul-20 19:31N 37°56' E 023°41'0 0.0
2018-Jul-20 19:01N 37°56' E 023°41'0 0.0
2018-Jul-20 18:31N 37°56' E 023°41'0 0.0
2018-Jul-20 18:00N 37°56' E 023°41'0 0.0
2018-Jul-20 17:30N 37°56' E 023°41'0 0.0
2018-Jul-20 17:01N 37°56' E 023°41'3 5.8
2018-Jul-20 16:30N 37°54' E 023°39'611.7
2018-Jul-20 16:00N 37°49' E 023°34'611.9
2018-Jul-20 15:30N 37°47' E 023°27'3 1.3
2018-Jul-20 13:31N 37°45' E 023°26'0 0.0
2018-Jul-20 13:29N 37°45' E 023°26'2 4.3
2018-Jul-20 13:00N 37°43' E 023°25'911.9
2018-Jul-20 12:17N 37°34' E 023°25'6 4.1
2018-Jul-20 10:55N 37°29' E 023°29'16 3.6
2018-Jul-20 06:21N 37°45' E 023°35'411.9
2018-Jul-20 06:00N 37°49' E 023°36'611.8
2018-Jul-20 05:30N 37°54' E 023°39'2 4.9
2018-Jul-20 05:01N 37°56' E 023°41'0 0.0
2018-Jul-20 04:30N 37°56' E 023°41'0 0.0
2018-Jul-20 04:00N 37°56' E 023°41'0 0.0
2018-Jul-19 16:55N 37°56' E 023°41'3 7.1
2018-Jul-19 16:30N 37°54' E 023°38'611.1
2018-Jul-19 16:00N 37°51' E 023°32'611.9
2018-Jul-19 15:30N 37°47' E 023°27'3 1.1
2018-Jul-19 13:15N 37°45' E 023°26'2 9.2
2018-Jul-19 13:00N 37°42' E 023°25'811.9
2018-Jul-19 12:18N 37°34' E 023°25'5 3.9
2018-Jul-19 10:54N 37°29' E 023°29'7 9.6
2018-Jul-19 10:11N 37°23' E 023°29'23 6.0
2018-Jul-19 06:20N 37°45' E 023°34'411.8
2018-Jul-19 06:00N 37°49' E 023°36'611.7
2018-Jul-19 05:30N 37°54' E 023°39'2 4.8
2018-Jul-19 05:00N 37°56' E 023°41'0 0.0
2018-Jul-19 04:30N 37°56' E 023°41'0 0.0
2018-Jul-19 04:00N 37°56' E 023°41'0 0.0
2018-Jul-18 16:54N 37°56' E 023°41'3 7.8
2018-Jul-18 16:30N 37°54' E 023°39'611.5
2018-Jul-18 16:00N 37°51' E 023°32'611.9
2018-Jul-18 15:30N 37°47' E 023°27'2 4.6
2018-Jul-18 15:00N 37°45' E 023°26'0 0.0
2018-Jul-18 14:30N 37°45' E 023°26'0 0.0
2018-Jul-18 13:26N 37°45' E 023°26'3 7.8
2018-Jul-18 13:00N 37°41' E 023°25'811.7
2018-Jul-18 12:21N 37°34' E 023°25'14 2.3
2018-Jul-18 06:19N 37°46' E 023°34'310.4
2018-Jul-18 06:00N 37°49' E 023°34'611.9
2018-Jul-18 05:30N 37°53' E 023°38'3 6.8
2018-Jul-18 05:00N 37°56' E 023°41'0 0.0
2018-Jul-18 04:30N 37°56' E 023°41'0 0.0
2018-Jul-18 04:00N 37°56' E 023°41'0 0.0
2018-Jul-18 03:30N 37°56' E 023°41'0 0.0
2018-Jul-18 03:00N 37°56' E 023°41'0 0.0
2018-Jul-18 02:30N 37°56' E 023°41'0 0.0
2018-Jul-18 02:00N 37°56' E 023°41'0 0.0
2018-Jul-18 01:30N 37°56' E 023°41'0 0.0
2018-Jul-18 01:00N 37°56' E 023°41'0 0.0
2018-Jul-18 00:30N 37°56' E 023°41'0 0.0
2018-Jul-18 00:00N 37°56' E 023°41'0 0.0
2018-Jul-17 23:30N 37°56' E 023°41'0 0.0
2018-Jul-17 23:00N 37°56' E 023°41'0 0.0
2018-Jul-17 22:29N 37°56' E 023°41'0 0.0
2018-Jul-17 22:00N 37°56' E 023°41'0 0.0
2018-Jul-17 21:30N 37°56' E 023°41'0 0.0
2018-Jul-17 21:00N 37°56' E 023°41'0 0.0
2018-Jul-17 20:30N 37°56' E 023°41'0 0.0
2018-Jul-17 20:00N 37°56' E 023°41'0 0.0
2018-Jul-17 19:30N 37°56' E 023°41'0 0.0
2018-Jul-17 19:00N 37°56' E 023°41'0 0.0
2018-Jul-17 18:30N 37°56' E 023°41'0 0.0
2018-Jul-17 18:00N 37°56' E 023°41'0 0.0
2018-Jul-17 17:30N 37°56' E 023°41'0 0.0
2018-Jul-17 17:00N 37°56' E 023°41'3 6.8
2018-Jul-17 16:30N 37°53' E 023°39'510.4
2018-Jul-17 16:00N 37°50' E 023°33'611.3
2018-Jul-17 15:30N 37°47' E 023°27'3 1.4
2018-Jul-17 13:17N 37°45' E 023°26'1 4.3
2018-Jul-17 13:00N 37°44' E 023°25'612.0
2018-Jul-17 12:30N 37°38' E 023°25'9 5.1
2018-Jul-17 10:49N 37°29' E 023°29'412.0
2018-Jul-17 10:30N 37°26' E 023°32'10 3.0
2018-Jul-17 06:59N 37°37' E 023°34'611.9
2018-Jul-17 06:28N 37°43' E 023°35'611.8
2018-Jul-17 05:58N 37°49' E 023°36'511.6
2018-Jul-17 05:30N 37°54' E 023°39'3 0.4
2018-Jul-16 21:10N 37°56' E 023°41'0 0.0
2018-Jul-16 21:00N 37°56' E 023°41'0 0.0
2018-Jul-16 20:29N 37°56' E 023°41'0 0.0
2018-Jul-16 20:00N 37°56' E 023°41'0 0.0
2018-Jul-16 19:30N 37°56' E 023°41'0 0.0
2018-Jul-16 19:00N 37°56' E 023°41'0 0.0
2018-Jul-16 18:30N 37°56' E 023°41'0 0.0
2018-Jul-16 18:00N 37°56' E 023°41'0 0.0
2018-Jul-16 17:30N 37°56' E 023°41'0 0.0
2018-Jul-16 17:00N 37°56' E 023°41'4 8.7
2018-Jul-16 16:30N 37°52' E 023°38'511.0
2018-Jul-16 16:00N 37°50' E 023°32'611.6
2018-Jul-16 15:30N 37°47' E 023°26'2 3.8
2018-Jul-16 15:00N 37°45' E 023°26'0 0.0
2018-Jul-16 14:30N 37°45' E 023°26'0 0.0
2018-Jul-16 13:56N 37°45' E 023°26'0 0.0
2018-Jul-16 13:26N 37°45' E 023°26'3 6.4
2018-Jul-16 12:59N 37°42' E 023°25'712.2
2018-Jul-16 12:26N 37°35' E 023°25'6 4.1
2018-Jul-16 10:53N 37°29' E 023°29'411.2
2018-Jul-16 10:29N 37°26' E 023°32'18 4.3
2018-Jul-16 06:19N 37°44' E 023°34'411.7
2018-Jul-16 06:00N 37°47' E 023°35'611.8
2018-Jul-16 05:30N 37°53' E 023°38'4 8.6
2018-Jul-16 05:00N 37°56' E 023°41'0 0.0
2018-Jul-16 04:30N 37°56' E 023°41'0 0.0
2018-Jul-16 04:00N 37°56' E 023°41'0 0.0
2018-Jul-15 16:48N 37°56' E 023°41'1 4.9
2018-Jul-15 16:30N 37°56' E 023°39'611.9
2018-Jul-15 16:00N 37°52' E 023°34'611.8
2018-Jul-15 15:30N 37°48' E 023°28'4 3.3
2018-Jul-15 14:24N 37°45' E 023°26'0 0.0
2018-Jul-15 13:08N 37°45' E 023°26'1 9.2
2018-Jul-15 13:00N 37°44' E 023°25'611.9
2018-Jul-15 12:30N 37°38' E 023°25'611.8
2018-Jul-15 12:00N 37°32' E 023°25'4 3.2
2018-Jul-15 10:48N 37°29' E 023°29'10 2.5
2018-Jul-15 06:38N 37°40' E 023°32'512.1
2018-Jul-15 06:13N 37°44' E 023°34'311.9
2018-Jul-15 06:00N 37°47' E 023°36'611.8
2018-Jul-15 05:30N 37°52' E 023°38'5 9.3
2018-Jul-15 05:00N 37°56' E 023°41'0 0.0
2018-Jul-15 04:30N 37°56' E 023°41'0 0.0
2018-Jul-15 04:00N 37°56' E 023°41'0 0.0
2018-Jul-14 17:04N 37°56' E 023°41'0 0.1
2018-Jul-14 17:00N 37°56' E 023°41'4 8.7
2018-Jul-14 16:30N 37°54' E 023°37'611.6
2018-Jul-14 16:00N 37°50' E 023°31'611.8
2018-Jul-14 15:30N 37°46' E 023°25'1 2.7
2018-Jul-14 15:00N 37°45' E 023°26'0 0.0
2018-Jul-14 14:30N 37°45' E 023°26'0 0.0
2018-Jul-14 13:30N 37°45' E 023°26'3 6.5
2018-Jul-14 13:00N 37°41' E 023°25'612.0
2018-Jul-14 12:28N 37°35' E 023°25'6 4.2
2018-Jul-14 10:57N 37°29' E 023°29'16 3.5
2018-Jul-14 06:29N 37°44' E 023°34'612.0
2018-Jul-14 06:00N 37°50' E 023°36'611.9
2018-Jul-14 05:30N 37°55' E 023°40'1 3.0
2018-Jul-14 05:00N 37°56' E 023°41'0 0.0
2018-Jul-14 04:30N 37°56' E 023°41'0 0.0
2018-Jul-14 04:00N 37°56' E 023°41'0 0.0
2018-Jul-14 03:30N 37°56' E 023°41'0 0.0
2018-Jul-13 16:51N 37°56' E 023°41'2 6.6
2018-Jul-13 16:30N 37°54' E 023°39'612.0
2018-Jul-13 16:00N 37°50' E 023°35'611.4
2018-Jul-13 15:30N 37°47' E 023°28'3 6.4
2018-Jul-13 15:00N 37°45' E 023°26'0 0.0
2018-Jul-13 13:59N 37°45' E 023°26'0 0.0
2018-Jul-13 13:24N 37°45' E 023°26'2 4.4
2018-Jul-13 13:00N 37°43' E 023°25'611.9
2018-Jul-13 12:30N 37°37' E 023°25'8 5.0
2018-Jul-13 10:53N 37°29' E 023°29'7 1.8
2018-Jul-13 07:08N 37°35' E 023°33'212.2
2018-Jul-13 06:58N 37°37' E 023°32'612.1
2018-Jul-13 06:30N 37°43' E 023°33'611.7
2018-Jul-13 06:00N 37°48' E 023°36'611.7
2018-Jul-13 05:30N 37°54' E 023°39'3 5.9
2018-Jul-13 05:00N 37°56' E 023°41'0 0.0
2018-Jul-13 04:30N 37°56' E 023°41'0 0.0
2018-Jul-13 04:00N 37°56' E 023°41'0 0.0
2018-Jul-13 03:30N 37°56' E 023°41'0 0.0
2018-Jul-12 17:04N 37°56' E 023°41'0 0.1
2018-Jul-12 17:00N 37°56' E 023°41'4 8.5
2018-Jul-12 16:30N 37°53' E 023°37'611.4
2018-Jul-12 16:00N 37°49' E 023°32'611.9
2018-Jul-12 15:30N 37°46' E 023°26'2 2.2
2018-Jul-12 14:50N 37°45' E 023°26'0 0.0
2018-Jul-12 14:29N 37°45' E 023°26'0 0.0
2018-Jul-12 13:16N 37°45' E 023°26'310.8
2018-Jul-12 12:58N 37°41' E 023°25'811.8
2018-Jul-12 12:20N 37°34' E 023°25'5 3.7
2018-Jul-12 10:53N 37°29' E 023°29'15 3.5
2018-Jul-12 06:31N 37°44' E 023°34'012.3
2018-Jul-12 06:30N 37°44' E 023°34'611.4
2018-Jul-12 06:00N 37°50' E 023°35'611.9
2018-Jul-12 05:30N 37°55' E 023°40'2 3.5
2018-Jul-12 05:00N 37°56' E 023°41'0 0.0
2018-Jul-12 04:30N 37°56' E 023°41'0 0.0
2018-Jul-12 04:00N 37°56' E 023°41'0 0.0
2018-Jul-12 03:30N 37°56' E 023°41'0 0.0
2018-Jul-12 03:00N 37°56' E 023°41'  
Track history (hours):
 
Tides and Currents Weather Stations Pressure Air Temp Water Temp Dewpoint Dewpoint Depression Visibility Wind Speed Wind Dir Waves Ship Positions

Platitera Tonouranon

Last reported at 2018-Jul-21 19:01 UTC. Time now 2018-Jul-21 18:58 UTC.
Position N 37°56' E 023°41'.

Length 55 m; draft 3.8 m.

Type: Ship (hazmat cat A). MMSI: 237038200.

Date/timePositionNaut miles runAvg speedWind from/ knotsBaromVisibWave heightAir tempDewpointWater temp
2018-Jul-21 19:01N 37°56' E 023°41'0 0.0
2018-Jul-21 18:30N 37°56' E 023°41'0 0.0
2018-Jul-21 18:00N 37°56' E 023°41'0 0.0
2018-Jul-21 17:31N 37°56' E 023°41'0 0.0
2018-Jul-21 17:00N 37°56' E 023°41'4 8.3
2018-Jul-21 16:30N 37°53' E 023°37'611.1
2018-Jul-21 16:00N 37°50' E 023°32'611.5
2018-Jul-21 15:31N 37°47' E 023°26'2 2.4
2018-Jul-21 14:44N 37°45' E 023°26'0 0.0
2018-Jul-21 14:27N 37°45' E 023°26'0 0.0
2018-Jul-21 13:30N 37°45' E 023°26'3 6.3
2018-Jul-21 13:00N 37°42' E 023°25'711.8
2018-Jul-21 12:22N 37°34' E 023°25'9 5.0
2018-Jul-21 10:37N 37°27' E 023°32'16 3.9
2018-Jul-21 06:32N 37°42' E 023°34'212.1
2018-Jul-21 06:24N 37°44' E 023°34'511.6
2018-Jul-21 06:00N 37°49' E 023°36'611.4
2018-Jul-21 05:30N 37°54' E 023°39'3 5.9
2018-Jul-21 05:00N 37°56' E 023°41'0 0.0
2018-Jul-21 04:30N 37°56' E 023°41'0 0.0
2018-Jul-21 04:00N 37°56' E 023°41'0 0.0
2018-Jul-21 03:30N 37°56' E 023°41'0 0.0
2018-Jul-21 03:00N 37°56' E 023°41'0 0.0
2018-Jul-21 02:30N 37°56' E 023°41'0 0.0
2018-Jul-21 02:00N 37°56' E 023°41'0 0.0
2018-Jul-21 01:30N 37°56' E 023°41'0 0.0
2018-Jul-21 01:00N 37°56' E 023°41'0 0.0
2018-Jul-21 00:30N 37°56' E 023°41'0 0.0
2018-Jul-21 00:00N 37°56' E 023°41'0 0.0
2018-Jul-20 23:30N 37°56' E 023°41'0 0.0
2018-Jul-20 23:00N 37°56' E 023°41'0 0.0
2018-Jul-20 22:30N 37°56' E 023°41'0 0.0
2018-Jul-20 22:00N 37°56' E 023°41'0 0.0
2018-Jul-20 21:30N 37°56' E 023°41'0 0.0
2018-Jul-20 21:00N 37°56' E 023°41'0 0.0
2018-Jul-20 20:31N 37°56' E 023°41'0 0.0
2018-Jul-20 20:00N 37°56' E 023°41'0 0.0
2018-Jul-20 19:31N 37°56' E 023°41'0 0.0
2018-Jul-20 19:01N 37°56' E 023°41'0 0.0
2018-Jul-20 18:31N 37°56' E 023°41'0 0.0
2018-Jul-20 18:00N 37°56' E 023°41'0 0.0
2018-Jul-20 17:30N 37°56' E 023°41'0 0.0
2018-Jul-20 17:01N 37°56' E 023°41'3 5.8
2018-Jul-20 16:30N 37°54' E 023°39'611.7
2018-Jul-20 16:00N 37°49' E 023°34'611.9
2018-Jul-20 15:30N 37°47' E 023°27'3 1.3
2018-Jul-20 13:31N 37°45' E 023°26'0 0.0
2018-Jul-20 13:29N 37°45' E 023°26'2 4.3
2018-Jul-20 13:00N 37°43' E 023°25'911.9
2018-Jul-20 12:17N 37°34' E 023°25'6 4.1
2018-Jul-20 10:55N 37°29' E 023°29'16 3.6
2018-Jul-20 06:21N 37°45' E 023°35'411.9
2018-Jul-20 06:00N 37°49' E 023°36'611.8
2018-Jul-20 05:30N 37°54' E 023°39'2 4.9
2018-Jul-20 05:01N 37°56' E 023°41'0 0.0
2018-Jul-20 04:30N 37°56' E 023°41'0 0.0
2018-Jul-20 04:00N 37°56' E 023°41'0 0.0
2018-Jul-19 16:55N 37°56' E 023°41'3 7.1
2018-Jul-19 16:30N 37°54' E 023°38'611.1
2018-Jul-19 16:00N 37°51' E 023°32'611.9
2018-Jul-19 15:30N 37°47' E 023°27'3 1.1
2018-Jul-19 13:15N 37°45' E 023°26'2 9.2
2018-Jul-19 13:00N 37°42' E 023°25'811.9
2018-Jul-19 12:18N 37°34' E 023°25'5 3.9
2018-Jul-19 10:54N 37°29' E 023°29'7 9.6
2018-Jul-19 10:11N 37°23' E 023°29'23 6.0
2018-Jul-19 06:20N 37°45' E 023°34'411.8
2018-Jul-19 06:00N 37°49' E 023°36'611.7
2018-Jul-19 05:30N 37°54' E 023°39'2 4.8
2018-Jul-19 05:00N 37°56' E 023°41'0 0.0
2018-Jul-19 04:30N 37°56' E 023°41'0 0.0
2018-Jul-19 04:00N 37°56' E 023°41'0 0.0
2018-Jul-18 16:54N 37°56' E 023°41'3 7.8
2018-Jul-18 16:30N 37°54' E 023°39'611.5
2018-Jul-18 16:00N 37°51' E 023°32'611.9
2018-Jul-18 15:30N 37°47' E 023°27'2 4.6
2018-Jul-18 15:00N 37°45' E 023°26'0 0.0
2018-Jul-18 14:30N 37°45' E 023°26'0 0.0
2018-Jul-18 13:26N 37°45' E 023°26'3 7.8
2018-Jul-18 13:00N 37°41' E 023°25'811.7
2018-Jul-18 12:21N 37°34' E 023°25'14 2.3
2018-Jul-18 06:19N 37°46' E 023°34'310.4
2018-Jul-18 06:00N 37°49' E 023°34'611.9
2018-Jul-18 05:30N 37°53' E 023°38'3 6.8
2018-Jul-18 05:00N 37°56' E 023°41'0 0.0
2018-Jul-18 04:30N 37°56' E 023°41'0 0.0
2018-Jul-18 04:00N 37°56' E 023°41'0 0.0
2018-Jul-18 03:30N 37°56' E 023°41'0 0.0
2018-Jul-18 03:00N 37°56' E 023°41'0 0.0
2018-Jul-18 02:30N 37°56' E 023°41'0 0.0
2018-Jul-18 02:00N 37°56' E 023°41'0 0.0
2018-Jul-18 01:30N 37°56' E 023°41'0 0.0
2018-Jul-18 01:00N 37°56' E 023°41'0 0.0
2018-Jul-18 00:30N 37°56' E 023°41'0 0.0
2018-Jul-18 00:00N 37°56' E 023°41'0 0.0
2018-Jul-17 23:30N 37°56' E 023°41'0 0.0
2018-Jul-17 23:00N 37°56' E 023°41'0 0.0
2018-Jul-17 22:29N 37°56' E 023°41'0 0.0
2018-Jul-17 22:00N 37°56' E 023°41'0 0.0
2018-Jul-17 21:30N 37°56' E 023°41'0 0.0
2018-Jul-17 21:00N 37°56' E 023°41'0 0.0
2018-Jul-17 20:30N 37°56' E 023°41'0 0.0
2018-Jul-17 20:00N 37°56' E 023°41'0 0.0
2018-Jul-17 19:30N 37°56' E 023°41'0 0.0
2018-Jul-17 19:00N 37°56' E 023°41'0 0.0
2018-Jul-17 18:30N 37°56' E 023°41'0 0.0
2018-Jul-17 18:00N 37°56' E 023°41'0 0.0
2018-Jul-17 17:30N 37°56' E 023°41'0 0.0
2018-Jul-17 17:00N 37°56' E 023°41'3 6.8
2018-Jul-17 16:30N 37°53' E 023°39'510.4
2018-Jul-17 16:00N 37°50' E 023°33'611.3
2018-Jul-17 15:30N 37°47' E 023°27'3 1.4
2018-Jul-17 13:17N 37°45' E 023°26'1 4.3
2018-Jul-17 13:00N 37°44' E 023°25'612.0
2018-Jul-17 12:30N 37°38' E 023°25'9 5.1
2018-Jul-17 10:49N 37°29' E 023°29'412.0
2018-Jul-17 10:30N 37°26' E 023°32'10 3.0
2018-Jul-17 06:59N 37°37' E 023°34'611.9
2018-Jul-17 06:28N 37°43' E 023°35'611.8
2018-Jul-17 05:58N 37°49' E 023°36'511.6
2018-Jul-17 05:30N 37°54' E 023°39'3 0.4
2018-Jul-16 21:10N 37°56' E 023°41'0 0.0
2018-Jul-16 21:00N 37°56' E 023°41'0 0.0
2018-Jul-16 20:29N 37°56' E 023°41'0 0.0
2018-Jul-16 20:00N 37°56' E 023°41'0 0.0
2018-Jul-16 19:30N 37°56' E 023°41'0 0.0
2018-Jul-16 19:00N 37°56' E 023°41'0 0.0
2018-Jul-16 18:30N 37°56' E 023°41'0 0.0
2018-Jul-16 18:00N 37°56' E 023°41'0 0.0
2018-Jul-16 17:30N 37°56' E 023°41'0 0.0
2018-Jul-16 17:00N 37°56' E 023°41'4 8.7
2018-Jul-16 16:30N 37°52' E 023°38'511.0
2018-Jul-16 16:00N 37°50' E 023°32'611.6
2018-Jul-16 15:30N 37°47' E 023°26'2 3.8
2018-Jul-16 15:00N 37°45' E 023°26'0 0.0
2018-Jul-16 14:30N 37°45' E 023°26'0 0.0
2018-Jul-16 13:56N 37°45' E 023°26'0 0.0
2018-Jul-16 13:26N 37°45' E 023°26'3 6.4
2018-Jul-16 12:59N 37°42' E 023°25'712.2
2018-Jul-16 12:26N 37°35' E 023°25'6 4.1
2018-Jul-16 10:53N 37°29' E 023°29'411.2
2018-Jul-16 10:29N 37°26' E 023°32'18 4.3
2018-Jul-16 06:19N 37°44' E 023°34'411.7
2018-Jul-16 06:00N 37°47' E 023°35'611.8
2018-Jul-16 05:30N 37°53' E 023°38'4 8.6
2018-Jul-16 05:00N 37°56' E 023°41'0 0.0
2018-Jul-16 04:30N 37°56' E 023°41'0 0.0
2018-Jul-16 04:00N 37°56' E 023°41'0 0.0
2018-Jul-15 16:48N 37°56' E 023°41'1 4.9
2018-Jul-15 16:30N 37°56' E 023°39'611.9
2018-Jul-15 16:00N 37°52' E 023°34'611.8
2018-Jul-15 15:30N 37°48' E 023°28'4 3.3
2018-Jul-15 14:24N 37°45' E 023°26'0 0.0
2018-Jul-15 13:08N 37°45' E 023°26'1 9.2
2018-Jul-15 13:00N 37°44' E 023°25'611.9
2018-Jul-15 12:30N 37°38' E 023°25'611.8
2018-Jul-15 12:00N 37°32' E 023°25'4 3.2
2018-Jul-15 10:48N 37°29' E 023°29'10 2.5
2018-Jul-15 06:38N 37°40' E 023°32'512.1
2018-Jul-15 06:13N 37°44' E 023°34'311.9
2018-Jul-15 06:00N 37°47' E 023°36'611.8
2018-Jul-15 05:30N 37°52' E 023°38'5 9.3
2018-Jul-15 05:00N 37°56' E 023°41'0 0.0
2018-Jul-15 04:30N 37°56' E 023°41'0 0.0
2018-Jul-15 04:00N 37°56' E 023°41'0 0.0
2018-Jul-14 17:04N 37°56' E 023°41'0 0.1
2018-Jul-14 17:00N 37°56' E 023°41'4 8.7
2018-Jul-14 16:30N 37°54' E 023°37'611.6
2018-Jul-14 16:00N 37°50' E 023°31'611.8
2018-Jul-14 15:30N 37°46' E 023°25'1 2.7
2018-Jul-14 15:00N 37°45' E 023°26'0 0.0
2018-Jul-14 14:30N 37°45' E 023°26'0 0.0
2018-Jul-14 13:30N 37°45' E 023°26'3 6.5
2018-Jul-14 13:00N 37°41' E 023°25'612.0
2018-Jul-14 12:28N 37°35' E 023°25'6 4.2
2018-Jul-14 10:57N 37°29' E 023°29'16 3.5
2018-Jul-14 06:29N 37°44' E 023°34'612.0
2018-Jul-14 06:00N 37°50' E 023°36'611.9
2018-Jul-14 05:30N 37°55' E 023°40'1 3.0
2018-Jul-14 05:00N 37°56' E 023°41'0 0.0
2018-Jul-14 04:30N 37°56' E 023°41'0 0.0
2018-Jul-14 04:00N 37°56' E 023°41'0 0.0
2018-Jul-14 03:30N 37°56' E 023°41'0 0.0
2018-Jul-13 16:51N 37°56' E 023°41'2 6.6
2018-Jul-13 16:30N 37°54' E 023°39'612.0
2018-Jul-13 16:00N 37°50' E 023°35'611.4
2018-Jul-13 15:30N 37°47' E 023°28'3 6.4
2018-Jul-13 15:00N 37°45' E 023°26'0 0.0
2018-Jul-13 13:59N 37°45' E 023°26'0 0.0
2018-Jul-13 13:24N 37°45' E 023°26'2 4.4
2018-Jul-13 13:00N 37°43' E 023°25'611.9
2018-Jul-13 12:30N 37°37' E 023°25'8 5.0
2018-Jul-13 10:53N 37°29' E 023°29'7 1.8
2018-Jul-13 07:08N 37°35' E 023°33'212.2
2018-Jul-13 06:58N 37°37' E 023°32'612.1
2018-Jul-13 06:30N 37°43' E 023°33'611.7
2018-Jul-13 06:00N 37°48' E 023°36'611.7
2018-Jul-13 05:30N 37°54' E 023°39'3 5.9
2018-Jul-13 05:00N 37°56' E 023°41'0 0.0
2018-Jul-13 04:30N 37°56' E 023°41'0 0.0
2018-Jul-13 04:00N 37°56' E 023°41'0 0.0
2018-Jul-13 03:30N 37°56' E 023°41'0 0.0
2018-Jul-12 17:04N 37°56' E 023°41'0 0.1
2018-Jul-12 17:00N 37°56' E 023°41'4 8.5
2018-Jul-12 16:30N 37°53' E 023°37'611.4
2018-Jul-12 16:00N 37°49' E 023°32'611.9
2018-Jul-12 15:30N 37°46' E 023°26'2 2.2
2018-Jul-12 14:50N 37°45' E 023°26'0 0.0
2018-Jul-12 14:29N 37°45' E 023°26'0 0.0
2018-Jul-12 13:16N 37°45' E 023°26'310.8
2018-Jul-12 12:58N 37°41' E 023°25'811.8
2018-Jul-12 12:20N 37°34' E 023°25'5 3.7
2018-Jul-12 10:53N 37°29' E 023°29'15 3.5
2018-Jul-12 06:31N 37°44' E 023°34'012.3
2018-Jul-12 06:30N 37°44' E 023°34'611.4
2018-Jul-12 06:00N 37°50' E 023°35'611.9
2018-Jul-12 05:30N 37°55' E 023°40'2 3.5
2018-Jul-12 05:00N 37°56' E 023°41'0 0.0
2018-Jul-12 04:30N 37°56' E 023°41'0 0.0
2018-Jul-12 04:00N 37°56' E 023°41'0 0.0
2018-Jul-12 03:30N 37°56' E 023°41'0 0.0
2018-Jul-12 03:00N 37°56' E 023°41'  

Dump ship's entire track history